createdAt,value
2018-08-22T00:01:34.021Z,95.70
2018-08-22T00:04:02.307Z,95.80
2018-08-22T00:06:30.570Z,95.80
2018-08-22T00:08:58.878Z,95.90
2018-08-22T00:11:27.130Z,95.90
2018-08-22T00:13:55.394Z,95.90
2018-08-22T00:16:23.670Z,95.90
2018-08-22T00:18:52.363Z,96.00
2018-08-22T00:21:20.750Z,96.20
2018-08-22T00:23:49.072Z,96.30
2018-08-22T00:26:17.383Z,96.40
2018-08-22T00:28:45.659Z,96.50
2018-08-22T00:31:13.950Z,96.70
2018-08-22T00:33:42.267Z,96.90
2018-08-22T00:36:10.553Z,96.90
2018-08-22T00:38:38.833Z,97.00
2018-08-22T00:41:07.187Z,97.00
2018-08-22T00:43:35.439Z,97.00
2018-08-22T00:46:03.699Z,97.00
2018-08-22T00:48:31.969Z,97.10
2018-08-22T00:51:00.293Z,97.10
2018-08-22T00:53:28.659Z,97.20
2018-08-22T00:55:56.888Z,97.20
2018-08-22T00:58:25.794Z,97.50
2018-08-22T01:00:55.403Z,97.20
2018-08-22T01:03:29.758Z,97.10
2018-08-22T01:06:04.498Z,97.10
2018-08-22T01:08:34.898Z,96.90
2018-08-22T01:11:12.493Z,96.80
2018-08-22T01:13:49.361Z,96.80
2018-08-22T01:16:28.150Z,96.80
2018-08-22T01:19:08.035Z,96.80
2018-08-22T01:21:44.544Z,96.90
2018-08-22T01:24:15.253Z,96.80
2018-08-22T01:26:52.907Z,96.90
2018-08-22T01:29:23.235Z,96.80
2018-08-22T01:31:55.553Z,97.00
2018-08-22T01:34:27.202Z,97.20
2018-08-22T01:36:56.261Z,97.20
2018-08-22T01:39:25.033Z,97.10
2018-08-22T01:41:54.736Z,97.30
2018-08-22T01:44:24.508Z,97.70
2018-08-22T01:46:53.988Z,97.60
2018-08-22T01:49:27.234Z,97.70
2018-08-22T01:51:56.744Z,97.60
2018-08-22T01:54:28.669Z,97.60
2018-08-22T01:56:59.914Z,97.60
2018-08-22T01:59:30.032Z,97.70
2018-08-22T02:01:58.903Z,97.90
2018-08-22T02:04:27.482Z,98.00
2018-08-22T02:06:55.841Z,97.90
2018-08-22T02:09:24.744Z,97.80
2018-08-22T02:11:53.735Z,97.60
2018-08-22T02:14:22.205Z,97.80
2018-08-22T02:16:50.861Z,97.80
2018-08-22T02:19:19.510Z,97.70
2018-08-22T02:21:48.132Z,97.70
2018-08-22T02:24:17.964Z,97.70
2018-08-22T02:26:47.006Z,97.80
2018-08-22T02:29:15.956Z,97.90
2018-08-22T02:31:45.000Z,97.80
2018-08-22T02:34:13.689Z,97.80
2018-08-22T02:36:42.130Z,97.90
2018-08-22T02:39:10.525Z,98.00
2018-08-22T02:41:39.003Z,98.10
2018-08-22T02:44:07.503Z,98.20
2018-08-22T02:46:35.945Z,98.20
2018-08-22T02:49:04.466Z,98.30
2018-08-22T02:51:33.887Z,98.40
2018-08-22T02:54:02.434Z,98.30
2018-08-22T02:56:30.783Z,98.40
2018-08-22T02:58:59.134Z,98.50
2018-08-22T03:01:27.381Z,98.50
2018-08-22T03:03:55.650Z,98.60
2018-08-22T03:06:23.904Z,98.60
2018-08-22T03:08:52.216Z,98.50
2018-08-22T03:11:20.521Z,98.50
2018-08-22T03:13:55.162Z,98.50
2018-08-22T03:16:23.471Z,98.60
2018-08-22T03:18:51.749Z,98.70
2018-08-22T03:21:20.009Z,98.70
2018-08-22T03:23:48.299Z,98.50
2018-08-22T03:26:16.637Z,98.90
2018-08-22T03:28:44.865Z,99.40
2018-08-22T03:31:13.130Z,99.10
2018-08-22T03:33:41.446Z,99.00
2018-08-22T03:36:09.736Z,99.10
2018-08-22T03:38:38.051Z,99.10
2018-08-22T03:41:06.330Z,99.00
2018-08-22T03:43:34.574Z,99.00
2018-08-22T03:46:02.866Z,99.00
2018-08-22T03:48:31.154Z,99.10
2018-08-22T03:50:59.499Z,99.10
2018-08-22T03:53:27.956Z,99.10
2018-08-22T03:55:56.249Z,99.10
2018-08-22T03:58:24.548Z,99.10
2018-08-22T04:00:52.810Z,99.10
2018-08-22T04:03:21.068Z,99.10
2018-08-22T04:05:49.345Z,99.00
2018-08-22T04:08:17.626Z,99.10
2018-08-22T04:10:46.985Z,99.00
2018-08-22T04:13:15.237Z,99.10
2018-08-22T04:15:43.526Z,99.20
2018-08-22T04:18:11.785Z,99.20
2018-08-22T04:20:40.087Z,99.20
2018-08-22T04:23:08.800Z,99.40
2018-08-22T04:25:37.088Z,99.40
2018-08-22T04:28:05.486Z,99.40
2018-08-22T04:30:33.843Z,99.30
2018-08-22T04:33:02.249Z,99.30
2018-08-22T04:35:30.592Z,99.50
2018-08-22T04:37:58.859Z,99.50
2018-08-22T04:40:27.145Z,99.60
2018-08-22T04:42:55.407Z,99.60
2018-08-22T04:45:23.651Z,99.60
2018-08-22T04:47:51.918Z,99.70
2018-08-22T04:50:20.217Z,99.80
2018-08-22T04:52:48.474Z,99.80
2018-08-22T04:55:16.994Z,99.70
2018-08-22T04:57:45.275Z,99.60
2018-08-22T05:00:13.611Z,99.60
2018-08-22T05:02:41.894Z,99.60
2018-08-22T05:05:10.190Z,99.60
2018-08-22T05:07:38.446Z,99.60
2018-08-22T05:10:07.089Z,99.60
2018-08-22T05:12:35.398Z,99.70
2018-08-22T05:15:03.716Z,99.60
2018-08-22T05:17:32.047Z,99.70
2018-08-22T05:20:00.441Z,99.50
2018-08-22T05:22:32.488Z,99.60
2018-08-22T05:25:01.011Z,99.50
2018-08-22T05:27:29.411Z,99.50
2018-08-22T05:29:57.804Z,99.60
2018-08-22T05:32:27.519Z,99.60
2018-08-22T05:34:55.900Z,99.40
2018-08-22T05:40:38.340Z,99.10
2018-08-22T05:43:06.607Z,99.10
2018-08-22T05:45:34.975Z,99.20
2018-08-22T05:48:03.329Z,99.20
2018-08-22T05:50:31.758Z,98.90
2018-08-22T05:53:00.090Z,98.80
2018-08-22T05:55:28.459Z,98.60
2018-08-22T05:58:00.065Z,98.60
2018-08-22T06:00:28.392Z,98.60
2018-08-22T06:02:56.868Z,98.20
2018-08-22T06:05:25.264Z,97.90
2018-08-22T06:07:53.917Z,97.50
2018-08-22T06:10:22.298Z,96.90
2018-08-22T06:12:50.610Z,96.80
2018-08-22T06:15:18.984Z,96.50
2018-08-22T06:17:49.243Z,96.10
2018-08-22T06:20:20.494Z,95.80
2018-08-22T06:22:54.244Z,95.70
2018-08-22T06:25:30.548Z,95.50
2018-08-22T06:28:10.662Z,95.60
2018-08-22T06:30:41.583Z,95.30
2018-08-22T06:33:10.690Z,95.40
2018-08-22T06:35:39.412Z,95.30
2018-08-22T06:38:09.415Z,94.90
2018-08-22T06:40:38.565Z,95.00
2018-08-22T06:43:07.463Z,94.80
2018-08-22T06:45:36.263Z,94.90
2018-08-22T06:48:05.152Z,95.10
2018-08-22T06:50:34.453Z,95.00
2018-08-22T06:53:05.622Z,94.60
2018-08-22T06:55:35.914Z,94.70
2018-08-22T06:58:06.204Z,94.50
2018-08-22T07:00:38.366Z,94.50
2018-08-22T07:03:07.216Z,94.20
2018-08-22T07:05:36.499Z,93.30
2018-08-22T07:08:06.577Z,92.90
2018-08-22T07:10:36.401Z,92.40
2018-08-22T07:13:05.751Z,92.40
2018-08-22T07:15:37.121Z,91.90
2018-08-22T07:18:10.011Z,91.80
2018-08-22T07:20:44.621Z,92.00
2018-08-22T07:23:19.165Z,91.90
2018-08-22T07:25:52.726Z,91.90
2018-08-22T07:28:29.024Z,90.90
2018-08-22T07:31:09.917Z,90.90
2018-08-22T07:36:48.856Z,90.70
2018-08-22T07:39:20.551Z,90.90
2018-08-22T07:41:49.339Z,90.30
2018-08-22T07:44:17.823Z,89.70
2018-08-22T07:46:46.207Z,89.40
2018-08-22T07:49:14.652Z,89.30
2018-08-22T07:51:43.210Z,89.40
2018-08-22T07:54:11.735Z,90.00
2018-08-22T07:56:40.078Z,89.50
2018-08-22T07:59:19.336Z,89.60
2018-08-22T08:01:47.838Z,89.30
2018-08-22T08:04:16.333Z,89.50
2018-08-22T08:06:44.838Z,90.20
2018-08-22T08:09:15.653Z,90.50
2018-08-22T08:11:45.008Z,90.80
2018-08-22T08:14:14.550Z,89.30
2018-08-22T08:16:42.939Z,89.90
2018-08-22T08:19:11.823Z,89.40
2018-08-22T08:21:40.164Z,89.50
2018-08-22T08:24:08.630Z,90.00
2018-08-22T08:26:48.070Z,89.90
2018-08-22T08:29:20.246Z,89.00
2018-08-22T08:31:48.772Z,88.10
2018-08-22T08:34:17.315Z,88.60
2018-08-22T08:36:45.905Z,87.80
2018-08-22T08:39:26.482Z,88.10
2018-08-22T08:42:03.986Z,87.20
2018-08-22T08:44:32.345Z,87.40
2018-08-22T08:47:01.819Z,86.10
2018-08-22T08:49:30.217Z,85.10
2018-08-22T08:52:00.593Z,85.70
2018-08-22T08:54:29.513Z,85.80
2018-08-22T08:56:58.376Z,85.40
2018-08-22T08:59:27.291Z,84.70
2018-08-22T09:01:57.065Z,84.00
2018-08-22T09:04:37.429Z,84.60
2018-08-22T09:07:24.378Z,84.20
2018-08-22T09:10:11.740Z,83.50
2018-08-22T09:12:49.608Z,83.00
2018-08-22T09:15:37.455Z,82.60
2018-08-22T09:21:09.643Z,82.90
2018-08-22T09:23:42.321Z,83.80
2018-08-22T09:26:10.633Z,82.90
2018-08-22T09:28:38.898Z,82.00
2018-08-22T09:31:07.171Z,81.70
2018-08-22T09:33:35.543Z,81.60
2018-08-22T09:36:03.856Z,79.80
2018-08-22T09:38:32.122Z,79.00
2018-08-22T09:41:00.390Z,79.70
2018-08-22T09:43:28.667Z,80.00
2018-08-22T09:45:56.955Z,79.70
2018-08-22T09:48:25.278Z,79.70
2018-08-22T09:50:53.913Z,78.70
2018-08-22T09:53:22.196Z,78.50
2018-08-22T09:55:50.495Z,78.70
2018-08-22T09:58:18.866Z,78.40
2018-08-22T10:00:52.495Z,77.90
2018-08-22T10:03:20.802Z,76.70
2018-08-22T10:05:49.167Z,78.00
2018-08-22T10:08:17.442Z,78.00
2018-08-22T10:10:45.705Z,77.50
2018-08-22T10:13:14.055Z,77.80
2018-08-22T10:15:42.360Z,78.50
2018-08-22T10:18:10.651Z,78.30
2018-08-22T10:20:38.960Z,77.30
2018-08-22T10:23:07.284Z,77.60
2018-08-22T10:25:35.591Z,76.80
2018-08-22T10:28:03.838Z,75.70
2018-08-22T10:30:32.154Z,75.00
2018-08-22T10:33:00.515Z,73.80
2018-08-22T10:35:28.884Z,75.40
2018-08-22T10:37:57.218Z,75.10
2018-08-22T10:40:25.521Z,74.40
2018-08-22T10:42:53.916Z,74.70
2018-08-22T10:45:22.183Z,75.40
2018-08-22T10:47:50.447Z,75.90
2018-08-22T10:50:18.745Z,75.90
2018-08-22T10:52:46.982Z,73.80
2018-08-22T10:55:15.292Z,72.30
2018-08-22T10:57:43.534Z,70.70
2018-08-22T11:00:11.829Z,68.00
2018-08-22T11:02:40.110Z,70.00
2018-08-22T11:05:08.397Z,70.10
2018-08-22T11:07:36.694Z,70.60
2018-08-22T11:10:05.103Z,71.90
2018-08-22T11:12:33.321Z,72.30
2018-08-22T11:15:01.579Z,73.80
2018-08-22T11:17:29.859Z,73.40
2018-08-22T11:19:58.143Z,71.90
2018-08-22T11:22:37.853Z,71.90
2018-08-22T11:25:17.694Z,70.70
2018-08-22T11:27:57.452Z,70.50
2018-08-22T11:30:37.132Z,68.60
2018-08-22T11:33:16.839Z,68.90
2018-08-22T11:35:44.106Z,68.40
2018-08-22T11:38:12.358Z,66.80
2018-08-22T11:40:40.684Z,66.50
2018-08-22T11:43:08.920Z,67.50
2018-08-22T11:45:37.216Z,69.10
2018-08-22T11:48:05.538Z,68.60
2018-08-22T11:50:33.804Z,67.60
2018-08-22T11:53:02.139Z,67.50
2018-08-22T11:55:30.394Z,66.60
2018-08-22T11:57:58.663Z,66.20
2018-08-22T12:00:26.937Z,68.10
2018-08-22T12:02:55.191Z,67.40
2018-08-22T12:05:23.483Z,68.70
2018-08-22T12:07:51.921Z,68.30
2018-08-22T12:10:20.291Z,67.90
2018-08-22T12:12:48.554Z,69.20
2018-08-22T12:15:16.798Z,68.80
2018-08-22T12:17:45.087Z,65.40
2018-08-22T12:20:13.363Z,66.80
2018-08-22T12:22:41.642Z,69.20
2018-08-22T12:25:09.887Z,68.80
2018-08-22T12:27:38.177Z,68.70
2018-08-22T12:30:06.448Z,66.60
2018-08-22T12:32:34.725Z,65.00
2018-08-22T12:35:03.015Z,65.00
2018-08-22T12:37:31.298Z,64.70
2018-08-22T12:39:59.594Z,65.70
2018-08-22T12:42:27.946Z,65.80
2018-08-22T12:44:56.215Z,68.10
2018-08-22T12:47:24.502Z,65.60
2018-08-22T12:49:52.760Z,65.40
2018-08-22T12:52:21.159Z,65.60
2018-08-22T12:54:49.488Z,62.30
2018-08-22T12:57:17.767Z,62.60
2018-08-22T12:59:46.035Z,62.70
2018-08-22T13:02:14.295Z,62.90
2018-08-22T13:04:42.708Z,63.30
2018-08-22T13:07:10.936Z,63.00
2018-08-22T13:09:39.234Z,62.90
2018-08-22T13:12:07.499Z,63.40
2018-08-22T13:14:35.843Z,63.60
2018-08-22T13:17:04.346Z,64.30
2018-08-22T13:19:32.638Z,63.80
2018-08-22T13:22:00.896Z,63.80
2018-08-22T13:24:29.242Z,64.50
2018-08-22T13:26:57.534Z,64.10
2018-08-22T13:29:25.824Z,64.20
2018-08-22T13:31:54.131Z,62.90
2018-08-22T13:34:22.499Z,62.20
2018-08-22T13:36:50.882Z,63.10
2018-08-22T13:39:19.162Z,64.50
2018-08-22T13:41:48.204Z,65.00
2018-08-22T13:44:16.539Z,63.90
2018-08-22T13:46:45.558Z,63.70
2018-08-22T13:49:14.109Z,63.90
2018-08-22T13:51:42.625Z,61.70
2018-08-22T13:54:11.404Z,62.20
2018-08-22T13:56:39.863Z,61.20
2018-08-22T13:59:08.527Z,61.30
2018-08-22T14:01:37.175Z,64.20
2018-08-22T14:04:05.797Z,65.90
2018-08-22T14:06:34.541Z,67.70
2018-08-22T14:09:03.401Z,63.90
2018-08-22T14:11:31.966Z,64.90
2018-08-22T14:14:00.512Z,64.10
2018-08-22T14:16:29.099Z,63.50
2018-08-22T14:18:57.612Z,64.40
2018-08-22T14:21:27.477Z,65.60
2018-08-22T14:23:56.202Z,66.80
2018-08-22T14:26:25.051Z,67.90
2018-08-22T14:28:53.789Z,67.30
2018-08-22T14:31:22.666Z,66.80
2018-08-22T14:33:52.154Z,66.70
2018-08-22T14:36:20.944Z,68.50
2018-08-22T14:38:49.650Z,69.40
2018-08-22T14:41:18.300Z,71.70
2018-08-22T14:43:46.982Z,70.40
2018-08-22T14:46:16.246Z,64.20
2018-08-22T14:48:46.259Z,65.40
2018-08-22T14:51:14.899Z,65.90
2018-08-22T14:53:43.481Z,67.50
2018-08-22T14:56:12.388Z,67.30
2018-08-22T14:58:42.013Z,66.80
2018-08-22T15:01:11.256Z,66.60
2018-08-22T15:03:40.598Z,66.90
2018-08-22T15:06:09.128Z,65.70
2018-08-22T15:08:38.078Z,66.60
2018-08-22T15:11:06.698Z,67.70
2018-08-22T15:13:35.315Z,69.20
2018-08-22T15:16:03.812Z,67.30
2018-08-22T15:18:32.410Z,64.70
2018-08-22T15:21:01.011Z,63.60
2018-08-22T15:23:29.711Z,65.10
2018-08-22T15:25:58.178Z,66.60
2018-08-22T15:28:26.992Z,66.30
2018-08-22T15:30:55.551Z,66.90
2018-08-22T15:33:24.144Z,68.10
2018-08-22T15:35:52.795Z,68.30
2018-08-22T15:38:26.156Z,67.00
2018-08-22T15:40:54.844Z,66.50
2018-08-22T15:43:33.760Z,67.80
2018-08-22T15:46:02.412Z,66.90
2018-08-22T15:48:39.036Z,67.30
2018-08-22T15:51:08.117Z,68.60
2018-08-22T15:53:37.518Z,67.10
2018-08-22T15:56:06.275Z,67.60
2018-08-22T15:58:36.572Z,62.70
2018-08-22T16:01:06.145Z,60.00
2018-08-22T16:03:35.072Z,61.70
2018-08-22T16:06:09.806Z,58.10
2018-08-22T16:08:40.427Z,58.60
2018-08-22T16:11:10.936Z,63.70
2018-08-22T16:13:39.532Z,67.40
2018-08-22T16:16:08.470Z,69.80
2018-08-22T16:18:36.917Z,70.20
2018-08-22T16:24:27.354Z,72.60
2018-08-22T16:26:56.137Z,73.60
2018-08-22T16:29:31.811Z,74.70
2018-08-22T16:32:04.209Z,76.50
2018-08-22T16:34:57.267Z,77.50
2018-08-22T16:40:27.444Z,80.20
2018-08-22T16:42:59.359Z,81.30
2018-08-22T16:45:28.831Z,81.90
2018-08-22T16:47:57.270Z,82.70
2018-08-22T16:50:26.129Z,83.30
2018-08-22T16:52:55.136Z,82.80
2018-08-22T16:55:24.805Z,83.10
2018-08-22T16:57:54.005Z,83.20
2018-08-22T17:00:32.244Z,83.30
2018-08-22T17:03:01.100Z,82.80
2018-08-22T17:05:29.541Z,82.90
2018-08-22T17:08:09.717Z,83.00
2018-08-22T17:10:55.276Z,83.20
2018-08-22T17:13:31.724Z,82.50
2018-08-22T17:16:01.602Z,82.70
2018-08-22T17:18:30.048Z,82.30
2018-08-22T17:20:58.431Z,82.60
2018-08-22T17:23:26.873Z,82.80
2018-08-22T17:25:55.313Z,83.50
2018-08-22T17:28:28.441Z,82.10
2018-08-22T17:30:57.026Z,82.10
2018-08-22T17:33:30.965Z,81.20
2018-08-22T17:35:59.512Z,81.70
2018-08-22T17:38:28.036Z,81.30
2018-08-22T17:40:56.415Z,80.60
2018-08-22T17:43:25.339Z,82.20
2018-08-22T17:45:53.848Z,82.40
2018-08-22T17:48:22.639Z,81.00
2018-08-22T17:50:51.400Z,81.10
2018-08-22T17:53:21.266Z,81.10
2018-08-22T17:55:50.727Z,83.10
2018-08-22T17:58:29.433Z,82.60
2018-08-22T18:01:00.270Z,82.20
2018-08-22T18:03:28.604Z,83.20
2018-08-22T18:05:56.939Z,83.70
2018-08-22T18:08:25.221Z,82.50
2018-08-22T18:10:53.583Z,83.60
2018-08-22T18:13:21.918Z,82.90
2018-08-22T18:15:50.195Z,83.20
2018-08-22T18:18:19.783Z,83.70
2018-08-22T18:20:49.545Z,84.00
2018-08-22T18:23:18.830Z,84.20
2018-08-22T18:25:55.407Z,85.40
2018-08-22T18:28:24.223Z,84.70
2018-08-22T18:30:52.539Z,85.20
2018-08-22T18:33:21.342Z,85.60
2018-08-22T18:35:49.754Z,85.90
2018-08-22T18:38:18.047Z,86.20
2018-08-22T18:40:56.371Z,86.50
2018-08-22T18:43:24.895Z,87.40
2018-08-22T18:46:07.381Z,86.60
2018-08-22T18:48:36.491Z,86.70
2018-08-22T18:51:06.321Z,87.90
2018-08-22T18:53:35.441Z,88.40
2018-08-22T18:56:14.214Z,87.70
2018-08-22T18:58:42.532Z,88.00
2018-08-22T19:01:10.943Z,88.80
2018-08-22T19:03:39.194Z,89.70
2018-08-22T19:06:07.966Z,89.80
2018-08-22T19:08:39.949Z,90.00
2018-08-22T19:11:09.166Z,90.20
2018-08-22T19:13:43.569Z,90.50
2018-08-22T19:16:15.270Z,90.90
2018-08-22T19:18:58.527Z,90.70
2018-08-22T19:21:33.780Z,90.80
2018-08-22T19:24:04.531Z,90.90
2018-08-22T19:26:36.640Z,91.10
2018-08-22T19:29:06.427Z,91.40
2018-08-22T19:31:35.917Z,91.70
2018-08-22T19:34:11.360Z,92.00
2018-08-22T19:36:40.444Z,92.10
2018-08-22T19:39:08.994Z,91.90
2018-08-22T19:41:42.830Z,92.20
2018-08-22T19:44:11.954Z,92.30
2018-08-22T19:46:40.326Z,92.30
2018-08-22T19:49:09.349Z,92.40
2018-08-22T19:51:37.914Z,92.70
2018-08-22T19:54:08.440Z,92.50
2018-08-22T19:59:27.286Z,92.70
2018-08-22T20:02:01.762Z,92.80
2018-08-22T20:04:34.214Z,92.90
2018-08-22T20:07:05.643Z,92.90
2018-08-22T20:09:40.720Z,93.00
2018-08-22T20:12:12.584Z,93.20
2018-08-22T20:14:51.961Z,93.20
2018-08-22T20:17:25.834Z,93.30
2018-08-22T20:19:56.233Z,93.20
2018-08-22T20:22:35.744Z,93.20
2018-08-22T20:25:04.898Z,93.30
2018-08-22T20:27:36.601Z,93.50
2018-08-22T20:30:13.003Z,93.50
2018-08-22T20:32:58.771Z,93.80
2018-08-22T20:35:30.613Z,93.60
2018-08-22T20:38:00.532Z,93.70
2018-08-22T20:40:29.184Z,93.70
2018-08-22T20:42:57.820Z,93.90
2018-08-22T20:45:31.653Z,94.00
2018-08-22T20:48:05.333Z,93.90
2018-08-22T20:50:34.376Z,93.80
2018-08-22T20:53:04.118Z,93.70
2018-08-22T20:55:36.382Z,93.70
2018-08-22T20:58:06.152Z,93.70
2018-08-22T21:00:36.289Z,93.90
2018-08-22T21:03:04.745Z,94.00
2018-08-22T21:05:33.121Z,93.90
2018-08-22T21:08:07.947Z,94.20
2018-08-22T21:10:37.479Z,94.00
2018-08-22T21:13:13.060Z,94.20
2018-08-22T21:15:42.106Z,94.10
2018-08-22T21:18:10.868Z,94.20
2018-08-22T21:20:39.326Z,94.70
2018-08-22T21:23:09.877Z,94.40
2018-08-22T21:25:38.367Z,94.90
2018-08-22T21:28:06.911Z,94.80
2018-08-22T21:30:35.205Z,94.80
2018-08-22T21:33:03.519Z,94.90
2018-08-22T21:35:31.839Z,94.90
2018-08-22T21:38:04.383Z,95.20
2018-08-22T21:40:33.550Z,95.10
2018-08-22T21:43:01.913Z,95.10
2018-08-22T21:45:30.216Z,95.30
2018-08-22T21:48:12.187Z,95.50
2018-08-22T21:50:40.516Z,95.40
2018-08-22T21:53:08.889Z,95.30
2018-08-22T21:55:38.278Z,95.60
2018-08-22T21:58:07.340Z,95.80
2018-08-22T22:00:35.728Z,95.80
2018-08-22T22:03:05.074Z,95.80
2018-08-22T22:05:45.480Z,95.90
2018-08-22T22:08:13.831Z,96.00
2018-08-22T22:10:42.185Z,96.10
2018-08-22T22:13:11.940Z,96.20
2018-08-22T22:15:45.378Z,96.50
2018-08-22T22:18:14.007Z,96.70
2018-08-22T22:20:42.373Z,96.40
2018-08-22T22:23:10.675Z,96.60
2018-08-22T22:25:38.998Z,96.60
2018-08-22T22:28:07.649Z,96.70
2018-08-22T22:30:35.931Z,96.60
2018-08-22T22:33:04.219Z,96.60
2018-08-22T22:35:38.336Z,96.60
2018-08-22T22:38:10.517Z,96.80
2018-08-22T22:40:39.226Z,96.80
2018-08-22T22:43:09.503Z,96.80
2018-08-22T22:45:37.918Z,96.90
2018-08-22T22:48:06.230Z,97.10
2018-08-22T22:50:34.658Z,97.00
2018-08-22T22:53:04.761Z,96.90
2018-08-22T22:55:33.287Z,96.90
2018-08-22T22:58:02.870Z,97.00
2018-08-22T23:00:31.163Z,97.20
2018-08-22T23:03:04.786Z,97.20
2018-08-22T23:05:33.107Z,97.20
2018-08-22T23:08:02.837Z,97.30
2018-08-22T23:10:31.168Z,97.70
2018-08-22T23:12:59.492Z,97.70
2018-08-22T23:15:29.119Z,97.60
2018-08-22T23:17:58.602Z,97.60
2018-08-22T23:20:29.951Z,97.70
2018-08-22T23:23:00.868Z,97.60
2018-08-22T23:25:29.800Z,97.50
2018-08-22T23:27:58.521Z,97.40
2018-08-22T23:30:32.279Z,97.50
2018-08-22T23:33:00.632Z,97.60
2018-08-22T23:35:31.132Z,97.60
2018-08-22T23:38:01.573Z,97.70
2018-08-22T23:40:31.216Z,97.70
2018-08-22T23:42:59.531Z,97.70
2018-08-22T23:45:28.479Z,97.90
2018-08-22T23:47:56.832Z,97.90
2018-08-22T23:50:33.157Z,97.90
2018-08-22T23:53:01.476Z,98.00
2018-08-22T23:55:29.800Z,98.10
2018-08-22T23:57:58.172Z,98.00
